createdAt,value
2018-11-21T00:01:37.102Z,3.20
2018-11-21T00:06:29.952Z,3.20
2018-11-21T00:11:22.616Z,3.30
2018-11-21T00:16:15.002Z,3.20
2018-11-21T00:21:07.904Z,3.30
2018-11-21T00:26:01.165Z,3.30
2018-11-21T00:30:53.892Z,3.20
2018-11-21T00:35:46.635Z,3.20
2018-11-21T00:40:39.527Z,3.20
2018-11-21T00:45:32.206Z,3.20
2018-11-21T00:50:25.188Z,3.20
2018-11-21T00:55:18.296Z,3.20
2018-11-21T01:00:12.232Z,3.10
2018-11-21T01:05:05.493Z,3.20
2018-11-21T01:09:58.063Z,3.20
2018-11-21T01:14:50.273Z,3.20
2018-11-21T01:19:42.696Z,3.10
2018-11-21T01:24:34.954Z,3.00
2018-11-21T01:29:27.634Z,2.90
2018-11-21T01:34:20.139Z,2.90
2018-11-21T01:39:13.162Z,2.80
2018-11-21T01:44:07.203Z,2.90
2018-11-21T01:48:59.825Z,2.90
2018-11-21T01:53:53.269Z,2.80
2018-11-21T01:58:45.761Z,2.80
2018-11-21T02:03:39.351Z,2.90
2018-11-21T02:08:32.953Z,2.90
2018-11-21T02:13:26.709Z,2.90
2018-11-21T02:18:23.469Z,2.90
2018-11-21T02:23:16.104Z,3.00
2018-11-21T02:28:08.752Z,2.90
2018-11-21T02:33:04.203Z,2.90
2018-11-21T02:37:57.327Z,3.00
2018-11-21T02:42:53.533Z,3.00
2018-11-21T02:47:46.020Z,2.90
2018-11-21T02:52:39.066Z,2.90
2018-11-21T02:57:33.154Z,2.90
2018-11-21T03:02:26.036Z,2.90
2018-11-21T03:07:19.721Z,2.80
2018-11-21T03:12:11.955Z,2.80
2018-11-21T03:17:04.601Z,2.90
2018-11-21T03:21:57.236Z,2.90
2018-11-21T03:26:49.842Z,2.90
2018-11-21T03:31:42.455Z,2.90
2018-11-21T03:36:35.379Z,2.90
2018-11-21T03:41:27.813Z,2.90
2018-11-21T03:46:20.277Z,3.00
2018-11-21T03:51:13.266Z,3.00
2018-11-21T03:56:06.528Z,3.00
2018-11-21T04:00:58.708Z,3.00
2018-11-21T04:05:51.044Z,3.00
2018-11-21T04:10:43.769Z,3.00
2018-11-21T04:15:36.277Z,3.00
2018-11-21T04:20:28.437Z,3.00
2018-11-21T04:25:21.099Z,3.00
2018-11-21T04:30:13.864Z,3.00
2018-11-21T04:35:08.198Z,3.00
2018-11-21T04:40:01.023Z,3.00
2018-11-21T04:44:53.223Z,3.00
2018-11-21T04:49:46.308Z,3.10
2018-11-21T04:54:38.808Z,3.10
2018-11-21T04:59:31.370Z,3.10
2018-11-21T05:04:23.798Z,3.00
2018-11-21T05:09:16.645Z,3.00
2018-11-21T05:14:09.152Z,3.00
2018-11-21T05:19:01.622Z,3.00
2018-11-21T05:23:54.585Z,3.00
2018-11-21T05:28:46.935Z,3.00
2018-11-21T05:33:39.865Z,3.00
2018-11-21T05:38:32.451Z,3.00
2018-11-21T05:43:24.850Z,3.00
2018-11-21T05:48:17.254Z,2.90
2018-11-21T05:53:10.154Z,2.90
2018-11-21T05:58:03.033Z,2.90
2018-11-21T06:02:55.171Z,3.00
2018-11-21T06:07:47.806Z,3.00
2018-11-21T06:12:40.711Z,3.00
2018-11-21T06:17:33.786Z,3.00
2018-11-21T06:22:26.327Z,3.00
2018-11-21T06:27:19.532Z,3.00
2018-11-21T06:32:11.737Z,3.00
2018-11-21T06:37:04.393Z,3.00
2018-11-21T06:41:56.992Z,3.00
2018-11-21T06:46:49.448Z,2.90
2018-11-21T06:51:41.670Z,2.90
2018-11-21T06:56:34.172Z,2.90
2018-11-21T07:01:26.679Z,2.80
2018-11-21T07:06:25.851Z,2.90
2018-11-21T07:11:18.361Z,2.90
2018-11-21T07:16:12.886Z,2.90
2018-11-21T07:21:06.409Z,2.90
2018-11-21T07:25:59.375Z,2.80
2018-11-21T07:30:51.950Z,2.80
2018-11-21T07:35:44.801Z,2.90
2018-11-21T07:40:38.405Z,2.90
2018-11-21T07:45:31.352Z,2.90
2018-11-21T07:50:24.605Z,2.80
2018-11-21T07:55:17.850Z,2.80
2018-11-21T08:01:25.686Z,2.90
2018-11-21T08:06:23.383Z,2.90
2018-11-21T08:11:33.138Z,3.00
2018-11-21T08:16:43.762Z,3.00
2018-11-21T08:21:53.812Z,3.20
2018-11-21T08:27:04.389Z,3.30
2018-11-21T08:31:57.275Z,3.30
2018-11-21T08:36:50.251Z,3.20
2018-11-21T08:41:43.311Z,3.20
2018-11-21T08:46:36.130Z,3.20
2018-11-21T08:51:28.647Z,3.20
2018-11-21T08:56:21.685Z,3.20
2018-11-21T09:01:14.605Z,3.30
2018-11-21T09:06:07.112Z,3.40
2018-11-21T09:11:00.128Z,3.50
2018-11-21T09:15:53.467Z,3.60
2018-11-21T09:20:45.828Z,3.60
2018-11-21T09:25:39.014Z,3.70
2018-11-21T09:30:31.506Z,3.80
2018-11-21T09:35:24.472Z,3.90
2018-11-21T09:40:18.557Z,4.10
2018-11-21T09:45:12.985Z,4.20
2018-11-21T09:50:10.945Z,4.20
2018-11-21T09:55:03.176Z,4.20
2018-11-21T09:59:55.893Z,4.40
2018-11-21T10:04:49.042Z,4.50
2018-11-21T10:09:43.957Z,4.60
2018-11-21T10:14:36.456Z,4.70
2018-11-21T10:19:29.700Z,4.70
2018-11-21T10:24:22.356Z,4.80
2018-11-21T10:29:14.608Z,4.90
2018-11-21T10:34:07.110Z,5.00
2018-11-21T10:38:59.785Z,5.10
2018-11-21T10:43:52.100Z,5.10
2018-11-21T10:48:44.835Z,5.30
2018-11-21T10:53:37.500Z,5.30
2018-11-21T10:58:29.670Z,5.30
2018-11-21T11:03:24.200Z,5.10
2018-11-21T11:08:35.603Z,5.20
2018-11-21T11:13:46.053Z,5.30
2018-11-21T11:19:04.054Z,5.20
2018-11-21T11:24:27.758Z,5.30
2018-11-21T11:29:54.705Z,5.60
2018-11-21T11:35:05.145Z,5.90
2018-11-21T11:40:16.988Z,6.00
2018-11-21T11:45:27.332Z,5.80
2018-11-21T11:50:37.750Z,5.80
2018-11-21T11:55:48.419Z,6.00
2018-11-21T12:01:04.615Z,6.10
2018-11-21T12:06:14.908Z,6.00
2018-11-21T12:11:25.507Z,5.90
2018-11-21T12:16:30.954Z,5.80
2018-11-21T12:21:42.504Z,5.70
2018-11-21T12:26:54.868Z,5.80
2018-11-21T12:32:12.782Z,5.90
2018-11-21T12:37:33.881Z,6.10
2018-11-21T12:42:54.400Z,6.20
2018-11-21T12:48:05.008Z,6.20
2018-11-21T12:53:19.327Z,6.20
2018-11-21T12:58:27.654Z,5.90
2018-11-21T13:03:39.044Z,5.70
2018-11-21T13:08:49.848Z,5.70
2018-11-21T13:14:07.525Z,5.40
2018-11-21T13:19:27.962Z,5.30
2018-11-21T13:24:38.151Z,5.20
2018-11-21T13:29:50.095Z,5.20
2018-11-21T13:35:00.289Z,5.10
2018-11-21T13:40:13.248Z,5.00
2018-11-21T13:45:31.550Z,4.90
2018-11-21T13:50:52.185Z,4.90
2018-11-21T13:55:44.941Z,4.90
2018-11-21T14:00:37.416Z,4.90
2018-11-21T14:05:30.046Z,4.80
2018-11-21T14:10:22.232Z,4.60
2018-11-21T14:15:14.735Z,4.50
2018-11-21T14:20:09.914Z,4.40
2018-11-21T14:25:02.476Z,4.40
2018-11-21T14:29:55.033Z,4.20
2018-11-21T14:34:47.802Z,4.20
2018-11-21T14:39:40.256Z,4.20
2018-11-21T14:44:32.811Z,4.10
2018-11-21T14:49:25.435Z,4.10
2018-11-21T14:54:18.156Z,4.20
2018-11-21T14:59:10.811Z,4.10
2018-11-21T15:04:03.799Z,4.10
2018-11-21T15:08:56.450Z,4.00
2018-11-21T15:13:48.750Z,4.00
2018-11-21T15:18:41.142Z,4.00
2018-11-21T15:23:33.917Z,4.00
2018-11-21T15:28:26.336Z,4.00
2018-11-21T15:33:18.672Z,4.00
2018-11-21T15:38:11.374Z,4.00
2018-11-21T15:43:03.844Z,4.00
2018-11-21T15:48:00.459Z,3.90
2018-11-21T15:52:53.284Z,3.80
2018-11-21T15:57:45.990Z,3.70
2018-11-21T16:02:38.461Z,3.70
2018-11-21T16:07:30.969Z,3.60
2018-11-21T16:12:23.594Z,3.60
2018-11-21T16:17:16.480Z,3.50
2018-11-21T16:22:09.045Z,3.40
2018-11-21T16:27:01.586Z,3.30
2018-11-21T16:31:54.583Z,3.30
2018-11-21T16:36:47.198Z,3.30
2018-11-21T16:41:39.585Z,3.20
2018-11-21T16:46:32.252Z,3.20
2018-11-21T16:51:24.929Z,3.20
2018-11-21T16:56:17.236Z,3.20
2018-11-21T17:01:09.323Z,3.10
2018-11-21T17:06:03.078Z,3.10
